createdAt,value
2022-07-29T00:02:27.341Z,62.65
2022-07-29T00:05:10.267Z,63.07
2022-07-29T00:07:49.107Z,62.67
2022-07-29T00:10:31.120Z,62.87
2022-07-29T00:13:32.148Z,62.90
2022-07-29T00:16:56.608Z,62.65
2022-07-29T00:19:45.778Z,62.54
2022-07-29T00:22:34.383Z,63.06
2022-07-29T00:25:02.280Z,63.20
2022-07-29T00:27:30.202Z,63.40
2022-07-29T00:29:58.123Z,63.10
2022-07-29T00:32:40.098Z,63.28
2022-07-29T00:35:26.938Z,63.23
2022-07-29T00:37:56.543Z,63.00
2022-07-29T00:40:39.922Z,63.53
2022-07-29T00:43:20.303Z,63.42
2022-07-29T00:45:59.328Z,63.36
2022-07-29T00:48:50.156Z,63.28
2022-07-29T00:51:34.324Z,63.25
2022-07-29T00:54:39.865Z,63.55
2022-07-29T00:57:28.833Z,63.01
2022-07-29T01:02:51.775Z,63.67
2022-07-29T01:05:51.200Z,63.59
2022-07-29T01:08:56.923Z,63.90
2022-07-29T01:11:37.038Z,64.30
2022-07-29T01:17:19.093Z,64.54
2022-07-29T01:23:29.752Z,64.87
2022-07-29T01:26:10.974Z,64.79
2022-07-29T01:28:51.393Z,64.95
2022-07-29T01:31:32.497Z,64.94
2022-07-29T01:37:55.876Z,64.51
2022-07-29T01:41:01.933Z,64.87
2022-07-29T01:44:03.080Z,65.07
2022-07-29T01:46:42.588Z,65.10
2022-07-29T01:49:22.981Z,65.09
2022-07-29T01:51:56.547Z,64.75
2022-07-29T01:54:32.400Z,64.79
2022-07-29T01:57:02.289Z,64.80
2022-07-29T01:59:38.048Z,64.99
2022-07-29T02:02:09.271Z,64.81
2022-07-29T02:04:38.807Z,64.82
2022-07-29T02:07:10.139Z,65.02
2022-07-29T02:09:43.856Z,64.62
2022-07-29T02:12:17.651Z,65.05
2022-07-29T02:14:58.244Z,65.23
2022-07-29T02:17:38.862Z,65.21
2022-07-29T02:20:28.638Z,65.33
2022-07-29T02:23:01.999Z,65.47
2022-07-29T02:25:44.277Z,65.46
2022-07-29T02:28:37.050Z,65.36
2022-07-29T02:31:09.916Z,65.54
2022-07-29T02:33:52.454Z,65.63
2022-07-29T02:36:25.741Z,65.93
2022-07-29T02:38:58.600Z,65.79
2022-07-29T02:41:31.272Z,65.70
2022-07-29T02:44:03.663Z,65.50
2022-07-29T02:46:34.716Z,65.81
2022-07-29T02:49:11.036Z,65.93
2022-07-29T02:51:45.186Z,65.88
2022-07-29T02:54:21.900Z,65.95
2022-07-29T02:56:55.262Z,66.06
2022-07-29T02:59:28.337Z,66.35
2022-07-29T03:02:02.362Z,66.32
2022-07-29T03:04:39.031Z,66.61
2022-07-29T03:07:09.775Z,66.51
2022-07-29T03:09:45.713Z,66.75
2022-07-29T03:12:25.921Z,66.72
2022-07-29T03:15:02.369Z,66.53
2022-07-29T03:17:53.717Z,66.48
2022-07-29T03:20:27.307Z,66.41
2022-07-29T03:23:01.769Z,66.42
2022-07-29T03:25:31.982Z,66.46
2022-07-29T03:28:03.736Z,66.26
2022-07-29T03:30:45.674Z,66.47
2022-07-29T03:33:20.504Z,66.46
2022-07-29T03:35:53.129Z,66.58
2022-07-29T03:38:30.551Z,66.71
2022-07-29T03:41:12.337Z,66.62
2022-07-29T03:43:49.323Z,66.75
2022-07-29T03:46:23.271Z,66.90
2022-07-29T03:49:04.045Z,66.93
2022-07-29T03:51:34.071Z,67.06
2022-07-29T03:54:09.295Z,67.23
2022-07-29T03:56:42.186Z,67.25
2022-07-29T03:59:19.100Z,67.09
2022-07-29T04:01:49.950Z,67.51
2022-07-29T04:04:20.354Z,67.09
2022-07-29T04:06:48.621Z,67.01
2022-07-29T04:09:18.077Z,67.11
2022-07-29T04:12:01.735Z,67.11
2022-07-29T04:14:32.494Z,67.06
2022-07-29T04:17:00.328Z,67.05
2022-07-29T04:19:29.698Z,66.79
2022-07-29T04:21:57.630Z,66.65
2022-07-29T04:24:26.484Z,66.51
2022-07-29T04:27:04.369Z,66.18
2022-07-29T04:29:32.177Z,66.01
2022-07-29T04:31:59.980Z,65.88
2022-07-29T04:34:31.451Z,65.59
2022-07-29T04:37:02.538Z,65.39
2022-07-29T04:39:30.600Z,65.27
2022-07-29T04:41:58.559Z,65.10
2022-07-29T04:44:28.698Z,64.84
2022-07-29T04:46:58.527Z,64.92
2022-07-29T04:49:26.906Z,65.38
2022-07-29T04:51:57.972Z,65.14
2022-07-29T04:54:25.904Z,64.67
2022-07-29T04:56:54.307Z,64.19
2022-07-29T04:59:22.194Z,62.19
2022-07-29T05:01:50.744Z,60.68
2022-07-29T05:04:20.465Z,60.50
2022-07-29T05:06:49.648Z,58.97
2022-07-29T05:09:32.811Z,58.67
2022-07-29T05:12:01.142Z,58.71
2022-07-29T05:14:29.353Z,58.88
2022-07-29T05:16:58.250Z,59.13
2022-07-29T05:19:28.943Z,58.79
2022-07-29T05:24:52.200Z,58.38
2022-07-29T05:27:27.169Z,57.99
2022-07-29T05:30:32.366Z,58.46
2022-07-29T05:33:36.229Z,57.81
2022-07-29T05:36:29.970Z,57.27
2022-07-29T05:46:25.168Z,54.73
2022-07-29T06:39:25.361Z,35.78
2022-07-29T06:41:53.841Z,36.14
2022-07-29T06:48:16.526Z,36.48
2022-07-29T06:50:46.874Z,32.51
2022-07-29T06:53:18.242Z,28.44
2022-07-29T06:55:50.209Z,27.04
2022-07-29T06:58:21.315Z,27.06
2022-07-29T07:00:57.749Z,27.36
2022-07-29T07:03:26.269Z,28.59
2022-07-29T07:05:55.200Z,28.01
2022-07-29T07:08:24.637Z,29.46
2022-07-29T07:10:56.111Z,29.65
2022-07-29T07:49:28.889Z,22.35
2022-07-29T07:51:59.919Z,24.19
2022-07-29T07:54:28.095Z,26.20
2022-07-29T07:56:57.703Z,27.43
2022-07-29T07:59:26.098Z,27.88
2022-07-29T08:01:55.786Z,28.89
2022-07-29T08:04:39.981Z,29.08
2022-07-29T08:11:34.787Z,30.69
2022-07-29T08:20:15.289Z,25.34
2022-07-29T08:22:43.042Z,21.40
2022-07-29T08:25:11.019Z,18.45
2022-07-29T08:27:44.100Z,16.71
2022-07-29T08:30:12.681Z,15.52
2022-07-29T08:32:53.880Z,14.74
2022-07-29T08:35:25.500Z,14.79
2022-07-29T08:37:54.000Z,13.36
2022-07-29T08:40:31.838Z,14.16
2022-07-29T08:43:01.141Z,12.45
2022-07-29T08:45:31.374Z,12.50
2022-07-29T08:47:59.356Z,12.22
2022-07-29T08:50:28.696Z,12.05
2022-07-29T08:52:59.847Z,13.41
2022-07-29T08:55:28.675Z,14.58
2022-07-29T08:57:57.988Z,14.28
2022-07-29T09:00:28.502Z,13.89
2022-07-29T09:03:00.079Z,12.83
2022-07-29T09:05:30.578Z,12.82
2022-07-29T09:07:58.562Z,12.29
2022-07-29T09:10:26.390Z,11.37
2022-07-29T09:12:54.385Z,11.29
2022-07-29T09:15:22.645Z,10.26
2022-07-29T09:17:51.430Z,10.88
2022-07-29T09:20:21.045Z,11.03
2022-07-29T09:22:51.780Z,10.46
2022-07-29T09:25:34.187Z,10.11
2022-07-29T09:28:08.005Z,10.46
2022-07-29T09:30:35.885Z,10.68
2022-07-29T09:33:05.370Z,10.95
2022-07-29T09:35:33.335Z,10.67
2022-07-29T09:38:12.361Z,11.01
2022-07-29T09:40:40.766Z,10.22
2022-07-29T09:43:12.501Z,10.16
2022-07-29T09:45:40.794Z,10.27
2022-07-29T09:48:19.718Z,11.03
2022-07-29T09:50:50.482Z,9.54
2022-07-29T09:53:33.891Z,9.83
2022-07-29T09:56:02.111Z,10.38
2022-07-29T09:58:30.186Z,11.98
2022-07-29T10:00:58.667Z,11.36
2022-07-29T10:03:26.837Z,11.34
2022-07-29T10:06:09.224Z,11.00
2022-07-29T10:08:38.869Z,11.25
2022-07-29T10:11:12.086Z,11.70
2022-07-29T10:13:40.567Z,12.03
2022-07-29T10:16:09.167Z,11.33
2022-07-29T10:18:37.482Z,11.97
2022-07-29T10:21:05.525Z,12.49
2022-07-29T10:23:46.254Z,11.62
2022-07-29T10:26:18.100Z,11.96
2022-07-29T10:28:46.418Z,12.37
2022-07-29T10:31:22.681Z,12.16
2022-07-29T10:34:04.886Z,11.77
2022-07-29T10:36:51.170Z,12.29
2022-07-29T10:39:44.478Z,12.78
2022-07-29T10:42:29.647Z,13.81
2022-07-29T10:45:05.749Z,14.32
2022-07-29T10:47:35.402Z,15.68
2022-07-29T10:50:05.891Z,15.75
2022-07-29T10:52:55.374Z,15.79
2022-07-29T10:55:34.150Z,15.73
2022-07-29T10:58:16.107Z,16.96
2022-07-29T11:00:47.799Z,16.27
2022-07-29T11:07:08.984Z,17.39
2022-07-29T11:09:38.414Z,14.94
2022-07-29T11:12:27.014Z,14.83
2022-07-29T11:15:01.406Z,13.39
2022-07-29T11:17:47.275Z,14.37
2022-07-29T11:20:34.052Z,16.39
2022-07-29T11:23:02.513Z,17.84
2022-07-29T11:25:50.073Z,18.14
2022-07-29T11:28:25.293Z,18.99
2022-07-29T11:30:56.078Z,18.26
2022-07-29T11:33:54.830Z,19.83
2022-07-29T11:36:28.027Z,20.11
2022-07-29T11:39:36.687Z,19.59
2022-07-29T11:42:41.988Z,20.77
2022-07-29T11:45:43.003Z,21.50
2022-07-29T11:50:54.989Z,22.98
2022-07-29T11:53:22.972Z,21.74
2022-07-29T11:55:58.119Z,23.39
2022-07-29T11:58:27.031Z,21.89
2022-07-29T12:00:56.254Z,23.49
2022-07-29T12:06:17.928Z,24.60
2022-07-29T12:08:46.835Z,24.55
2022-07-29T12:11:20.519Z,24.41
2022-07-29T12:13:49.610Z,23.82
2022-07-29T12:16:25.897Z,25.55
2022-07-29T12:19:02.981Z,25.65
2022-07-29T12:21:31.387Z,25.50
2022-07-29T12:24:05.784Z,26.20
2022-07-29T12:26:37.159Z,26.56
2022-07-29T12:29:11.374Z,24.89
2022-07-29T12:31:43.567Z,26.05
2022-07-29T12:34:16.625Z,24.06
2022-07-29T12:36:44.818Z,25.35
2022-07-29T12:39:13.305Z,25.91
2022-07-29T12:41:41.147Z,25.74
2022-07-29T12:44:09.048Z,26.80
2022-07-29T12:46:37.227Z,27.18
2022-07-29T12:49:05.489Z,27.27
2022-07-29T12:56:20.737Z,27.00
2022-07-29T12:58:53.750Z,27.15
2022-07-29T13:01:22.202Z,26.72
2022-07-29T13:03:57.522Z,27.90
2022-07-29T13:06:42.187Z,27.54
2022-07-29T13:09:18.955Z,26.65
2022-07-29T13:11:51.344Z,27.45
2022-07-29T13:15:11.974Z,27.79
2022-07-29T13:17:56.145Z,28.01
2022-07-29T13:20:34.270Z,27.66
2022-07-29T13:27:32.941Z,29.30
2022-07-29T13:33:01.132Z,29.58
2022-07-29T13:36:15.660Z,28.86
2022-07-29T13:42:10.667Z,30.33
2022-07-29T13:44:52.873Z,28.54
2022-07-29T13:47:49.432Z,31.41
2022-07-29T13:50:17.751Z,29.71
2022-07-29T13:53:47.417Z,30.10
2022-07-29T13:56:55.885Z,30.52
2022-07-29T14:00:14.750Z,29.78
2022-07-29T14:02:44.208Z,30.87
2022-07-29T14:05:13.152Z,30.83
2022-07-29T14:08:10.805Z,30.04
2022-07-29T14:15:49.935Z,31.04
2022-07-29T14:18:34.233Z,31.23
2022-07-29T14:21:49.676Z,31.27
2022-07-29T14:25:38.441Z,30.52
2022-07-29T14:32:26.459Z,30.92
2022-07-29T14:37:42.857Z,30.75
2022-07-29T14:49:49.412Z,30.65
2022-07-29T14:52:18.957Z,30.50
2022-07-29T14:56:15.331Z,30.35
2022-07-29T14:59:35.440Z,30.50
2022-07-29T15:25:44.278Z,31.50
2022-07-29T15:28:12.587Z,31.09
2022-07-29T15:30:42.170Z,31.32
2022-07-29T15:33:10.962Z,31.83
2022-07-29T15:35:40.559Z,32.13
2022-07-29T15:44:22.715Z,31.57
2022-07-29T15:47:08.084Z,31.67
2022-07-29T15:49:48.699Z,31.66
2022-07-29T16:05:43.370Z,33.26
2022-07-29T16:08:11.118Z,33.50
2022-07-29T16:10:38.911Z,32.72
2022-07-29T16:13:06.659Z,32.85
2022-07-29T16:15:34.716Z,33.99
2022-07-29T16:18:02.516Z,32.98
2022-07-29T16:20:30.911Z,33.28
2022-07-29T16:23:00.034Z,32.89
2022-07-29T16:25:50.199Z,32.76
2022-07-29T16:28:15.756Z,33.62
2022-07-29T16:30:43.677Z,33.20
2022-07-29T16:33:11.436Z,33.13
2022-07-29T16:35:40.434Z,33.47
2022-07-29T16:59:43.463Z,34.56
2022-07-29T17:02:11.976Z,34.42
2022-07-29T17:04:41.189Z,34.40
2022-07-29T17:07:08.978Z,34.36
2022-07-29T17:09:36.736Z,34.37
2022-07-29T17:12:04.896Z,34.63
2022-07-29T17:14:38.466Z,35.08
2022-07-29T17:17:13.468Z,35.01
2022-07-29T17:19:44.724Z,35.36
2022-07-29T17:22:18.723Z,34.60
2022-07-29T17:24:47.399Z,35.54
2022-07-29T17:27:15.296Z,35.76
2022-07-29T17:29:43.313Z,35.76
2022-07-29T17:32:11.703Z,35.44
2022-07-29T17:34:40.633Z,35.82
2022-07-29T17:37:11.699Z,36.84
2022-07-29T17:39:41.170Z,36.13
2022-07-29T17:42:09.325Z,38.16
2022-07-29T17:44:37.173Z,36.91
2022-07-29T17:47:05.379Z,36.58
2022-07-29T17:49:36.305Z,36.18
2022-07-29T17:52:05.836Z,37.05
2022-07-29T17:54:34.947Z,37.31
2022-07-29T17:57:02.733Z,36.97
2022-07-29T17:59:30.492Z,36.91
2022-07-29T18:01:58.754Z,37.07
2022-07-29T18:04:26.574Z,38.23
2022-07-29T18:06:54.457Z,37.22
2022-07-29T18:09:22.162Z,37.92
2022-07-29T18:11:51.636Z,38.73
2022-07-29T18:14:19.446Z,39.83
2022-07-29T18:16:47.206Z,39.18
2022-07-29T18:19:16.003Z,37.52
2022-07-29T18:21:51.996Z,38.42
2022-07-29T18:24:25.151Z,37.74
2022-07-29T18:26:54.473Z,37.32
2022-07-29T18:29:22.417Z,37.74
2022-07-29T18:31:50.546Z,40.30
2022-07-29T18:34:18.335Z,37.81
2022-07-29T18:36:46.603Z,38.71
2022-07-29T18:39:20.000Z,39.39
2022-07-29T18:41:50.697Z,38.44
2022-07-29T18:44:21.684Z,38.35
2022-07-29T18:46:50.009Z,38.99
2022-07-29T18:49:17.862Z,38.57
2022-07-29T18:51:45.635Z,38.18
2022-07-29T18:54:13.435Z,38.32
2022-07-29T18:56:41.196Z,37.98
2022-07-29T18:59:09.118Z,37.25
2022-07-29T19:01:38.864Z,37.71
2022-07-29T19:04:06.686Z,39.24
2022-07-29T19:06:34.536Z,39.62
2022-07-29T19:09:02.519Z,40.80
2022-07-29T19:11:30.296Z,40.66
2022-07-29T19:13:58.430Z,41.90
2022-07-29T19:16:26.452Z,42.45
2022-07-29T19:18:56.088Z,42.85
2022-07-29T19:21:25.407Z,42.72
2022-07-29T19:24:06.462Z,43.74
2022-07-29T19:26:36.348Z,43.61
2022-07-29T19:29:04.928Z,43.89
2022-07-29T19:31:32.939Z,44.77
2022-07-29T19:34:02.159Z,44.47
2022-07-29T19:36:31.180Z,44.02
2022-07-29T19:38:59.894Z,44.21
2022-07-29T19:41:27.771Z,45.23
2022-07-29T19:43:55.623Z,45.29
2022-07-29T19:46:24.338Z,45.57
2022-07-29T19:48:52.909Z,46.12
2022-07-29T19:51:22.434Z,45.57
2022-07-29T19:53:50.382Z,46.47
2022-07-29T19:56:18.219Z,47.31
2022-07-29T19:58:47.166Z,47.63
2022-07-29T20:01:16.547Z,47.83
2022-07-29T20:03:44.667Z,47.52
2022-07-29T20:06:12.591Z,48.13
2022-07-29T20:08:41.663Z,48.32
2022-07-29T20:11:09.429Z,48.69
2022-07-29T20:13:37.275Z,48.70
2022-07-29T20:16:08.017Z,48.70
2022-07-29T20:18:36.119Z,49.66
2022-07-29T20:21:04.653Z,50.35
2022-07-29T20:23:33.378Z,50.56
2022-07-29T20:26:05.110Z,51.17
2022-07-29T20:28:35.247Z,51.31
2022-07-29T20:31:03.010Z,51.46
2022-07-29T20:33:30.806Z,51.77
2022-07-29T20:35:58.560Z,52.59
2022-07-29T20:38:26.283Z,52.63
2022-07-29T20:40:58.407Z,52.66
2022-07-29T20:43:27.658Z,53.10
2022-07-29T20:45:55.503Z,53.48
2022-07-29T20:48:23.300Z,53.42
2022-07-29T20:50:51.454Z,53.54
2022-07-29T20:53:20.326Z,53.48
2022-07-29T20:55:48.337Z,53.92
2022-07-29T20:58:16.074Z,53.75
2022-07-29T21:00:45.263Z,54.25
2022-07-29T21:03:13.011Z,54.43
2022-07-29T21:05:43.810Z,55.00
2022-07-29T21:08:12.299Z,54.77
2022-07-29T21:10:40.294Z,55.60
2022-07-29T21:13:08.151Z,55.77
2022-07-29T21:15:36.146Z,55.88
2022-07-29T21:18:09.162Z,56.00
2022-07-29T21:20:36.920Z,55.87
2022-07-29T21:23:04.726Z,56.20
2022-07-29T21:25:34.251Z,56.43
2022-07-29T21:28:19.834Z,56.69
2022-07-29T21:30:47.610Z,56.84
2022-07-29T21:33:16.924Z,57.06
2022-07-29T21:35:58.964Z,56.95
2022-07-29T21:38:33.292Z,57.25
2022-07-29T21:41:01.513Z,57.40
2022-07-29T21:43:29.757Z,57.61
2022-07-29T21:45:58.037Z,57.65
2022-07-29T21:48:29.594Z,57.78
2022-07-29T21:50:57.642Z,57.84
2022-07-29T21:53:27.749Z,58.18
2022-07-29T21:55:55.666Z,57.96
2022-07-29T21:58:24.551Z,58.01
2022-07-29T22:00:53.819Z,58.06
2022-07-29T22:03:21.862Z,58.75
2022-07-29T22:05:50.943Z,58.64
2022-07-29T22:08:20.981Z,58.73
2022-07-29T22:10:48.728Z,58.44
2022-07-29T22:13:16.565Z,59.09
2022-07-29T22:15:47.180Z,59.33
2022-07-29T22:18:21.105Z,59.48
2022-07-29T22:20:50.963Z,59.74
2022-07-29T22:23:18.820Z,59.71
2022-07-29T22:25:46.655Z,60.12
2022-07-29T22:28:14.420Z,60.17
2022-07-29T22:30:42.252Z,60.33
2022-07-29T22:33:16.841Z,59.99
2022-07-29T22:35:48.586Z,59.85
2022-07-29T22:38:18.466Z,59.53
2022-07-29T22:40:46.859Z,59.98
2022-07-29T22:43:16.539Z,60.23
2022-07-29T22:45:44.331Z,60.42
2022-07-29T22:48:12.178Z,60.41
2022-07-29T22:50:40.007Z,60.12
2022-07-29T22:53:07.988Z,60.14
2022-07-29T22:55:37.346Z,60.29
2022-07-29T22:58:05.352Z,61.27
2022-07-29T23:00:33.672Z,61.21
2022-07-29T23:03:01.522Z,61.55
2022-07-29T23:05:29.279Z,61.34
2022-07-29T23:07:57.138Z,61.51
2022-07-29T23:10:24.901Z,61.35
2022-07-29T23:12:54.018Z,61.84
2022-07-29T23:15:22.098Z,61.81
2022-07-29T23:17:49.822Z,61.28
2022-07-29T23:20:17.698Z,61.52
2022-07-29T23:22:45.585Z,61.49
2022-07-29T23:25:13.409Z,61.57
2022-07-29T23:27:41.463Z,61.80
2022-07-29T23:30:11.679Z,62.09
2022-07-29T23:32:42.515Z,61.98
2022-07-29T23:35:23.048Z,61.98
2022-07-29T23:37:54.914Z,62.01
2022-07-29T23:40:34.545Z,62.08
2022-07-29T23:43:08.568Z,62.19
2022-07-29T23:45:59.182Z,62.33
2022-07-29T23:48:29.080Z,62.61
2022-07-29T23:50:58.502Z,62.57
2022-07-29T23:53:26.596Z,62.48
2022-07-29T23:55:57.006Z,62.73
2022-07-29T23:58:41.979Z,62.70
